Terminal Aerodrome Forecast
Issued by NWS

Home | Current Version | Previous Version | Text Only | Print | Product List | Glossary On
Versions: 1 2 3 4 5 6 7 8 9 10 11 12 13 14 15 16 17 18 19 20 21 22 23 24 25 26 27 28 29 30 31 32 33 34 35 36 37 38 39
000
FTAK31 PAFA 071737
TAFAOT
TAF
PAOT 071737Z 0718/0818 15009KT 5SM -RA BR FEW005 BKN050 OVC100
     FM072000 25014KT 3SM -RA BR BKN015 OVC035
     FM080400 26007KT P6SM VCSH FEW015 BKN035 OVC050=

USA.gov is the U.S. government's official web portal to all federal, state and local government web resources and services.